Flight Track Log - Related Links

Times and Time Zones

All times are in EDT time to prevent confusion due to time zone crossing. See the OPT732 flight status page for this flight to view local times or setup timezone preferences in your user account.

Time Position Orientation Groundspeed Altitude Reporting Facility
EDT Latitude Longitude Course Direction KTS MPH feet Rate Location/Type
Thu 11:39:35 AM 47.5514 -122.3217 330° Northwest 185 213 1,200  Level Seattle Center
Thu 11:40:06 AM 47.5797 -122.3456 330° Northwest 204 235 2,700 3,588 Climbing Seattle Center
Thu 11:41:12 AM 47.6408 -122.4203 321° Northwest 269 310 7,000 3,402 Climbing Seattle Center
Thu 11:42:13 AM 47.7086 -122.4519 343° North 287 330 9,900 2,343 Climbing Seattle Center
Thu 11:42:57 AM 47.7631 -122.4481 North 283 326 11,100 1,672 Climbing Seattle Center
Thu 11:43:14 AM 47.7864 -122.4256 33° Northeast 330 380 11,600 1,672 Climbing Seattle Center
Thu 11:43:58 AM 47.7994 -122.3325 78° East 340 391 12,800 1,869 Climbing Seattle Center
Thu 11:44:15 AM 47.7847 -122.2944 120° Southeast 362 417 13,500 2,066 Climbing Seattle Center
Thu 11:44:59 AM 47.7267 -122.2161 138° Southeast 361 415 14,900 1,314 Climbing Seattle Center
Thu 11:46:00 AM 47.6600 -122.0961 129° Southeast 378 435 15,800 1,426 Climbing Seattle Center
Thu 11:47:01 AM 47.5878 -121.9828 133° Southeast 376 433 17,800 1,475 Climbing Seattle Center
Thu 11:48:02 AM 47.5167 -121.8669 132° Southeast 391 450 18,800 1,279 Climbing Seattle Center
Thu 11:49:03 AM 47.4431 -121.7408 131° Southeast 404 465 20,400 1,525 Climbing Seattle Center
Thu 11:50:04 AM 47.4228 -121.5761 100° East 415 478 21,900 1,574 Climbing Seattle Center
Thu 11:51:05 AM 47.4250 -121.4022 89° East 424 488 23,600 1,770 Climbing Seattle Center
Thu 11:52:06 AM 47.4206 -121.2269 92° East 430 495 25,500 1,770 Climbing Seattle Center
Thu 11:53:07 AM 47.4172 -121.0469 92° East 439 505 27,200 1,672 Climbing Seattle Center
Thu 11:54:08 AM 47.4139 -120.8239 91° East 458 527 28,900 1,279 Climbing Seattle Center
Thu 11:55:09 AM 47.4097 -120.6581 92° East 468 539 29,800 984 Climbing Seattle Center
Thu 11:56:10 AM 47.4050 -120.4561 92° East 490 564 30,900 1,230 Climbing Seattle Center
Thu 11:57:11 AM 47.3700 -120.2103 102° East 514 592 32,300 1,279 Climbing Seattle Center
Thu 11:58:12 AM 47.3339 -120.0025 104° East 524 603 33,500 1,180 Climbing Seattle Center
Thu 11:59:13 AM 47.2950 -119.7947 105° East 527 606 34,700 1,180 Climbing Seattle Center
Thu 12:00:14 PM 47.2581 -119.5853 104° East 530 610 35,900 1,180 Climbing Seattle Center
Thu 12:01:15 PM 47.2203 -119.3764 105° East 530 610 37,100 1,230 Climbing Seattle Center
Thu 12:02:16 PM 47.1953 -119.1683 100° East 521 600 38,400 1,279 Climbing Seattle Center
Thu 12:03:17 PM 47.1672 -118.9642 101° East 513 590 39,700 934 Climbing Seattle Center
Thu 12:04:18 PM 47.1414 -118.7606 100° East 510 587 40,300 590 Climbing Seattle Center
Thu 12:05:19 PM 47.1142 -118.5558 101° East 514 592 40,900 344 Climbing Seattle Center
Thu 12:06:20 PM 47.0869 -118.3494 101° East 516 594 41,000 49 Climbing Seattle Center
Thu 12:07:21 PM 47.0597 -118.1442 101° East 517 595 41,000  Level Seattle Center
Thu 12:08:22 PM 47.0258 -117.8947 101° East 521 600 41,000  Level Seattle Center
Thu 12:09:23 PM 46.9978 -117.6903 101° East 518 596 41,000  Level Seattle Center
Thu 12:10:24 PM 46.9667 -117.4794 102° East 529 609 41,000  Level Seattle Center
Thu 12:11:25 PM 46.9372 -117.2711 102° East 529 609 41,000  Level Seattle Center
Thu 12:12:26 PM 46.9075 -117.0622 102° East 530 610 41,000  Level Seattle Center
Thu 12:13:27 PM 46.8769 -116.8528 102° East 531 611 41,000  Level Seattle Center
Thu 12:14:28 PM 46.8456 -116.6408 102° East 536 617 41,000  Level Seattle Center
Thu 12:15:29 PM 46.8125 -116.4289 103° East 539 620 41,000  Level Seattle Center
Thu 12:16:30 PM 46.7808 -116.2156 102° East 541 623 41,000  Level Seattle Center
Thu 12:17:31 PM 46.7408 -115.9611 103° East 539 620 41,000  Level Seattle Center
Thu 12:18:32 PM 46.7075 -115.7478 103° East 541 623 41,000  Level Seattle Center
Thu 12:19:33 PM 46.6739 -115.5347 103° East 543 625 41,000  Level Seattle Center
Thu 12:20:34 PM 46.6386 -115.3197 103° East 548 631 41,000  Level Seattle Center
Thu 12:21:35 PM 46.6036 -115.1086 103° East 540 621 41,000  Level Seattle Center
Thu 12:21:55 PM 46.5958 -115.0600 103° East 543 625 41,000  Level Salt Lake Center
Thu 12:22:57 PM 46.5539 -114.8058 103° East 540 621 41,000  Level Salt Lake Center
Thu 12:23:59 PM 46.5183 -114.5958 104° East 539 620 41,000  Level Salt Lake Center
Thu 12:25:01 PM 46.4819 -114.3842 104° East 542 624 41,000  Level Salt Lake Center
Thu 12:26:02 PM 46.4458 -114.1747 104° East 539 620 41,000  Level Salt Lake Center
Thu 12:27:04 PM 46.4097 -113.9686 104° East 533 613 41,000  Level Salt Lake Center
Thu 12:28:06 PM 46.3739 -113.7644 104° East 527 606 41,000  Level Salt Lake Center
Thu 12:29:08 PM 46.3294 -113.5197 105° East 527 606 41,000  Level Salt Lake Center
Thu 12:30:10 PM 46.2922 -113.3161 105° East 527 606 41,000  Level Salt Lake Center
Thu 12:31:12 PM 46.2489 -113.0908 105° East 525 604 41,000  Level Salt Lake Center
Thu 12:32:14 PM 46.2081 -112.8892 106° East 523 602 41,000  Level Salt Lake Center
Thu 12:33:16 PM 46.1694 -112.6825 105° East 532 612 41,000  Level Salt Lake Center
Thu 12:34:18 PM 46.1303 -112.4786 105° East 529 609 41,000  Level Salt Lake Center
Thu 12:35:20 PM 46.0894 -112.2731 106° East 534 615 41,000  Level Salt Lake Center
Thu 12:36:22 PM 46.0489 -112.0672 106° East 532 612 41,000  Level Salt Lake Center
Thu 12:37:24 PM 46.0075 -111.8611 106° East 537 618 41,000  Level Salt Lake Center
Thu 12:38:26 PM 45.9561 -111.6108 106° East 543 625 41,000  Level Salt Lake Center
Thu 12:39:27 PM 45.9131 -111.4022 106° East 541 623 41,000  Level Salt Lake Center
Thu 12:40:29 PM 45.8700 -111.1919 106° East 540 621 41,000  Level Salt Lake Center
Thu 12:41:31 PM 45.8239 -110.9750 107° East 540 621 41,000  Level Salt Lake Center
Thu 12:42:33 PM 45.7797 -110.7667 107° East 541 623 41,000  Level Salt Lake Center
Thu 12:43:35 PM 45.7319 -110.5492 107° East 540 621 41,000  Level Salt Lake Center
Thu 12:44:37 PM 45.6889 -110.3544 108° East 538 619 41,000  Level Salt Lake Center
Thu 12:45:39 PM 45.6472 -110.1592 107° East 537 618 41,000  Level Salt Lake Center
Thu 12:46:40 PM 45.5964 -109.9319 108° East 539 620 41,000  Level Salt Lake Center
Thu 12:47:42 PM 45.5542 -109.7369 107° East 538 619 41,000  Level Salt Lake Center
Thu 12:48:44 PM 45.5028 -109.5131 108° East 533 613 41,000  Level Salt Lake Center
Thu 12:49:46 PM 45.4589 -109.3228 108° East 529 609 41,000  Level Salt Lake Center
Thu 12:51:00 PM 45.4075 -109.0980 108° East  Level FlightAware Approximate
Thu 12:51:49 PM 45.3633 -108.9086 108° East 530 610 41,000  Level Salt Lake Center
Thu 12:52:51 PM 45.3183 -108.7169 108° East 535 616 41,000  Level Salt Lake Center
Thu 12:53:53 PM 45.2664 -108.4961 108° East 528 608 41,000  Level Salt Lake Center
Thu 12:54:55 PM 45.2208 -108.3056 109° East 530 610 41,000  Level Salt Lake Center
Thu 12:55:57 PM 45.1667 -108.0825 109° East 532 612 41,000  Level Salt Lake Center
Thu 12:56:58 PM 45.1197 -107.8911 109° East 533 613 41,000  Level Salt Lake Center
Thu 12:58:00 PM 45.0733 -107.6992 109° East 531 611 41,000  Level Salt Lake Center
Thu 12:59:02 PM 45.0175 -107.4736 109° East 537 618 41,000  Level Salt Lake Center
Thu 01:00:04 PM 44.9692 -107.2811 109° East 539 620 41,000  Level Salt Lake Center
Thu 01:01:06 PM 44.9139 -107.0575 109° East 538 619 41,000  Level Salt Lake Center
Thu 01:02:07 PM 44.8647 -106.8681 110° East 537 618 41,000  Level Salt Lake Center
Thu 01:03:09 PM 44.8167 -106.6769 109° East 540 621 41,000  Level Salt Lake Center
Thu 01:04:11 PM 44.7597 -106.4553 110° East 539 620 41,000  Level Salt Lake Center
Thu 01:05:12 PM 44.7089 -106.2672 111° Southeast 538 619 41,000  Level Salt Lake Center
Thu 01:06:14 PM 44.6533 -106.0539 110° East 540 621 41,000  Level Salt Lake Center
Thu 01:07:16 PM 44.6039 -105.8664 110° East 536 617 41,000  Level Salt Lake Center
Thu 01:08:18 PM 44.5453 -105.6508 111° Southeast 529 609 41,000  Level Salt Lake Center
Thu 01:09:34 PM 44.4786 -105.4022 111° Southeast 532 612 41,000  Level Denver Center
Thu 01:10:36 PM 44.4281 -105.2178 111° Southeast 531 611 41,000  Level Denver Center
Thu 01:11:38 PM 44.3694 -105.0031 111° Southeast 530 610 41,000  Level Denver Center
Thu 01:12:40 PM 44.3172 -104.8203 112° Southeast 529 609 41,000  Level Denver Center
Thu 01:13:42 PM 44.2575 -104.6061 111° Southeast 529 609 41,000  Level Denver Center
Thu 01:14:44 PM 44.2064 -104.4231 111° Southeast 529 609 41,000  Level Denver Center
Thu 01:15:46 PM 44.1450 -104.2119 112° Southeast 525 604 41,000  Level Denver Center
Thu 01:16:48 PM 44.0933 -104.0272 111° Southeast 532 612 41,000  Level Denver Center
Thu 01:17:50 PM 44.0400 -103.8450 112° Southeast 532 612 41,000  Level Denver Center
Thu 01:18:53 PM 43.9783 -103.6336 112° Southeast 530 610 41,000  Level Denver Center
Thu 01:19:55 PM 43.9247 -103.4511 112° Southeast 532 612 41,000  Level Denver Center
Thu 01:20:57 PM 43.8644 -103.2431 112° Southeast 523 602 41,000  Level Denver Center
Thu 01:21:59 PM 43.8111 -103.0656 113° Southeast 523 602 41,000  Level Denver Center
Thu 01:23:01 PM 43.7467 -102.8539 113° Southeast 529 609 41,000  Level Denver Center
Thu 01:24:03 PM 43.6914 -102.6753 113° Southeast 529 609 41,000  Level Denver Center
Thu 01:25:05 PM 43.6269 -102.4672 113° Southeast 528 608 41,000  Level Denver Center
Thu 01:26:07 PM 43.5747 -102.2917 112° Southeast 524 603 41,000  Level Denver Center
Thu 01:27:09 PM 43.5200 -102.1153 113° Southeast 525 604 41,000  Level Denver Center
Thu 01:28:11 PM 43.4500 -101.8942 113° Southeast 525 604 41,000  Level Denver Center
Thu 01:29:13 PM 43.3928 -101.7089 113° Southeast 527 606 41,000  Level Denver Center
Thu 01:30:15 PM 43.3339 -101.5239 114° Southeast 530 610 41,000  Level Denver Center
Thu 01:31:17 PM 43.2750 -101.3386 114° Southeast 532 612 41,000  Level Denver Center
Thu 01:32:19 PM 43.2153 -101.1542 114° Southeast 532 612 41,000  Level Denver Center
Thu 01:33:21 PM 43.1569 -100.9722 114° Southeast 526 605 41,000  Level Denver Center
Thu 01:34:23 PM 43.0858 -100.7511 114° Southeast 531 611 41,000  Level Denver Center
Thu 01:35:25 PM 43.0258 -100.5686 114° Southeast 528 608 41,000  Level Denver Center
Thu 01:35:41 PM 43.0261 -100.5694 295° West 530 610 41,000  Level Minneapolis Center
Thu 01:36:43 PM 42.9542 -100.3517 114° Southeast 528 608 41,000  Level Minneapolis Center
Thu 01:37:45 PM 42.8922 -100.1700 115° Southeast 530 610 41,000  Level Minneapolis Center
Thu 01:38:32 PM 42.8436 -100.0206 114° Southeast 532 612 41,000  Level Denver Center
Thu 01:39:34 PM 42.7819 -99.8397 115° Southeast 531 611 41,000  Level Denver Center
Thu 01:40:36 PM 42.7089 -99.6225 115° Southeast 529 609 41,000  Level Denver Center
Thu 01:40:51 PM 42.6964 -99.5864 115° Southeast 530 610 41,000  Level Minneapolis Center
Thu 01:42:05 PM 42.6353 -99.4033 114° Southeast 529 609 41,000  Level Minneapolis Center
Thu 01:43:07 PM 42.5600 -99.1897 116° Southeast 523 602 41,000  Level Minneapolis Center
Thu 01:44:09 PM 42.4983 -99.0094 115° Southeast 524 603 41,000  Level Minneapolis Center
Thu 01:45:11 PM 42.4353 -98.8297 115° Southeast 527 606 41,000  Level Minneapolis Center
Thu 01:46:13 PM 42.3592 -98.6150 116° Southeast 525 604 41,000  Level Minneapolis Center
Thu 01:47:27 PM 42.2969 -98.4372 115° Southeast 524 603 41,000 44 Level Minneapolis Center
Thu 01:48:29 PM 42.2225 -98.2297 116° Southeast 514 592 41,100 242 Climbing Minneapolis Center
Thu 01:49:31 PM 42.1597 -98.0550 116° Southeast 515 593 41,500 387 Climbing Minneapolis Center
Thu 01:50:33 PM 42.0919 -97.8692 116° Southeast 511 588 41,900 435 Climbing Minneapolis Center
Thu 01:51:35 PM 42.0306 -97.6983 116° Southeast 508 585 42,400 435 Climbing Minneapolis Center
Thu 01:52:37 PM 41.9694 -97.5278 116° Southeast 507 583 42,800 435 Climbing Minneapolis Center
Thu 01:53:39 PM 41.9067 -97.3597 117° Southeast 506 582 43,300 435 Climbing Minneapolis Center
Thu 01:54:41 PM 41.8442 -97.1897 116° Southeast 506 582 43,700 390 Climbing Minneapolis Center
Thu 01:55:42 PM 41.7814 -97.0225 117° Southeast 504 580 44,100 439 Climbing Minneapolis Center
Thu 01:56:44 PM 41.7189 -96.8547 116° Southeast 503 579 44,600 435 Climbing Minneapolis Center
Thu 01:57:46 PM 41.6433 -96.6561 117° Southeast 501 577 45,000 194 Climbing Minneapolis Center
Thu 01:58:48 PM 41.5817 -96.4897 116° Southeast 501 577 45,000  Level Minneapolis Center
Thu 01:59:50 PM 41.5197 -96.3311 118° Southeast 503 579 45,000  Level Minneapolis Center
Thu 02:00:52 PM 41.4542 -96.1625 117° Southeast 509 586 45,000  Level Minneapolis Center
Thu 02:01:54 PM 41.3900 -95.9956 117° Southeast 507 583 45,000  Level Minneapolis Center
Thu 02:02:55 PM 41.3128 -95.7958 117° Southeast 506 582 45,000  Level Minneapolis Center
Thu 02:03:57 PM 41.2481 -95.6303 117° Southeast 503 579 45,000  Level Minneapolis Center
Thu 02:04:59 PM 41.1861 -95.4753 118° Southeast 507 583 45,000  Level Minneapolis Center
Thu 02:06:01 PM 41.1200 -95.3078 118° Southeast 511 588 45,000  Level Minneapolis Center
Thu 02:07:14 PM 41.0542 -95.1403 117° Southeast 513 590 45,000  Level Minneapolis Center
Thu 02:08:17 PM 40.9617 -94.9075 118° Southeast 510 587 45,000  Level Minneapolis Center
Thu 02:09:18 PM 40.8958 -94.7433 118° Southeast 507 583 45,000  Level Minneapolis Center
Thu 02:10:32 PM 40.8294 -94.5794 118° Southeast 506 582 45,000  Level Minneapolis Center
Thu 02:11:34 PM 40.7447 -94.3736 118° Southeast 508 585 45,000  Level Minneapolis Center
Thu 02:12:36 PM 40.6781 -94.2108 118° Southeast 508 585 45,000  Level Minneapolis Center
Thu 02:13:50 PM 40.6094 -94.0497 119° Southeast 508 585 45,000  Level Minneapolis Center
Thu 02:14:52 PM 40.5308 -93.8550 118° Southeast 507 583 45,000  Level Minneapolis Center
Thu 02:15:54 PM 40.4614 -93.6942 120° Southeast 507 583 45,000  Level Minneapolis Center
Thu 02:16:55 PM 40.3806 -93.5000 119° Southeast 508 585 45,000  Level Minneapolis Center
Thu 02:17:32 PM 40.3383 -93.4011 119° Southeast 510 587 45,000  Level Kansas City Center
Thu 02:18:34 PM 40.2708 -93.2431 119° Southeast 506 582 45,000  Level Kansas City Center
Thu 02:19:36 PM 40.2044 -93.0831 118° Southeast 506 582 45,000  Level Kansas City Center
Thu 02:20:37 PM 40.1294 -92.9100 120° Southeast 508 585 45,000  Level Kansas City Center
Thu 02:21:39 PM 40.0550 -92.7347 119° Southeast 510 587 45,000  Level Kansas City Center
Thu 02:22:42 PM 39.9881 -92.5767 119° Southeast 510 587 45,000  Level Kansas City Center
Thu 02:23:43 PM 39.9183 -92.4189 120° Southeast 510 587 45,000  Level Kansas City Center
Thu 02:24:45 PM 39.8481 -92.2606 120° Southeast 511 588 45,000  Level Kansas City Center
Thu 02:25:47 PM 39.7650 -92.0697 119° Southeast 511 588 45,000  Level Kansas City Center
Thu 02:26:49 PM 39.6953 -91.9128 120° Southeast 508 585 45,000  Level Kansas City Center
Thu 02:27:51 PM 39.6250 -91.7558 120° Southeast 508 585 45,000  Level Kansas City Center
Thu 02:28:53 PM 39.5544 -91.6000 120° Southeast 506 582 45,000  Level Kansas City Center
Thu 02:29:55 PM 39.4747 -91.4222 120° Southeast 502 578 45,000  Level Kansas City Center
Thu 02:30:57 PM 39.4050 -91.2642 120° Southeast 505 581 45,000  Level Kansas City Center
Thu 02:31:59 PM 39.3342 -91.1086 120° Southeast 504 580 45,000  Level Kansas City Center
Thu 02:33:01 PM 39.2636 -90.9542 121° Southeast 501 577 45,000  Level Kansas City Center
Thu 02:34:02 PM 39.1925 -90.8000 121° Southeast 501 577 45,000  Level Kansas City Center
Thu 02:35:04 PM 39.1219 -90.6461 121° Southeast 497 572 45,000  Level Kansas City Center
Thu 02:36:06 PM 39.0511 -90.4922 121° Southeast 498 573 45,000  Level Kansas City Center
Thu 02:37:08 PM 38.9797 -90.3369 121° Southeast 499 574 45,000  Level Kansas City Center
Thu 02:38:10 PM 38.9003 -90.1664 121° Southeast 500 575 45,000  Level Kansas City Center
Thu 02:39:12 PM 38.8186 -89.9944 121° Southeast 504 580 45,000  Level Kansas City Center
Thu 02:40:14 PM 38.7450 -89.8372 121° Southeast 510 587 45,000  Level Kansas City Center
Thu 02:41:16 PM 38.6714 -89.6828 121° Southeast 508 585 45,000  Level Kansas City Center
Thu 02:42:17 PM 38.5936 -89.5186 121° Southeast 507 583 45,000 -439 Level Kansas City Center
Thu 02:43:19 PM 38.5131 -89.3533 122° Southeast 507 583 44,100 -1,452 Descending Kansas City Center
Thu 02:44:21 PM 38.4406 -89.2053 122° Southeast 494 568 42,000 -2,129 Descending Kansas City Center
Thu 02:45:23 PM 38.4114 -89.0425 103° East 477 549 39,700 -2,371 Descending Kansas City Center
Thu 02:46:25 PM 38.4053 -88.8475 92° East 510 587 37,100 -2,371 Descending Kansas City Center
Thu 02:47:27 PM 38.3975 -88.6753 93° East 489 563 34,800 -2,293 Descending Kansas City Center
Thu 02:48:28 PM 38.3883 -88.4947 94° East 488 562 32,400 -2,293 Descending Kansas City Center
Thu 02:49:30 PM 38.3814 -88.3175 93° East 497 572 30,100 -1,645 Descending Kansas City Center
Thu 02:50:32 PM 38.3714 -88.1367 94° East 508 585 29,000 -1,214 Descending Kansas City Center
Thu 02:50:54 PM 38.3694 -88.0658 92° East 507 583 28,400 -1,786 Descending Indianapolis Center
Thu 02:51:56 PM 38.3614 -87.8850 93° East 511 588 26,500 -1,887 Descending Indianapolis Center
Thu 02:52:58 PM 38.3514 -87.7072 94° East 504 580 24,500 -1,968 Descending Indianapolis Center
Thu 02:54:01 PM 38.3422 -87.5403 94° East 479 551 22,400 -1,984 Descending Indianapolis Center
Thu 02:55:02 PM 38.3336 -87.3758 94° East 468 539 20,400 -1,707 Descending Indianapolis Center
Thu 02:56:04 PM 38.3208 -87.2225 96° East 445 512 18,900 -1,632 Descending Indianapolis Center
Thu 02:57:07 PM 38.2981 -87.0411 99° East 439 505 17,000 -1,968 Descending Indianapolis Center
Thu 02:58:09 PM 38.2808 -86.9078 99° East 423 487 14,800 -2,177 Descending Indianapolis Center
Thu 02:59:11 PM 38.2622 -86.7617 99° East 420 483 12,500 -1,887 Descending Indianapolis Center
Thu 03:00:13 PM 38.2403 -86.5958 100° East 398 458 10,900 -968 Descending Indianapolis Center
Thu 03:01:15 PM 38.2247 -86.4753 99° East 355 409 10,500 -1,355 Descending Indianapolis Center
Thu 03:02:17 PM 38.2117 -86.3739 99° East 298 343 8,100 -2,129 Descending Indianapolis Center
Thu 03:03:19 PM 38.2228 -86.2861 81° East 272 313 6,100 -1,258 Descending Indianapolis Center
Thu 03:04:21 PM 38.2708 -86.2236 46° Northeast 247 284 5,500 -1,016 Descending Indianapolis Center
Thu 03:05:23 PM 38.3217 -86.1561 46° Northeast 251 289 4,000 -1,161 Descending Indianapolis Center
Thu 03:06:25 PM 38.3389 -86.0631 77° East 265 305 3,100 -484 Descending Indianapolis Center
Thu 03:07:27 PM 38.3617 -85.9528 75° East 267 307 3,000 -48 Descending Indianapolis Center
Thu 03:08:29 PM 38.3608 -85.8653 91° East 262 302 3,000  Level Indianapolis Center
Thu 03:09:31 PM 38.3269 -85.8058 126° Southeast 224 258 3,000 -290 Level Indianapolis Center
Thu 03:10:33 PM 38.2817 -85.7803 156° South 197 227 2,400 -581 Descending Indianapolis Center
Thu 03:13:00 PM 38.1741 -85.7365 137° Southeast  Level Estimated
Thu 03:20:00 PM 38.1741 -85.7365 293° West  Level Estimated
Thu 03:21:00 PM 38.1741 -85.7365 293° West  Level Estimated

Login

Don't have an account? Register now (free) for customized features, flight alerts, and more!